Time;durP1;ratioP1;P1;durP2;ratioP2;P2;SDS_P1;SDS_P2;PMS_P1;PMS_P2;Temp;Humidity;BMP_temperature;BMP_pressure;BME280_temperature;BME280_humidity;BME280_pressure;Samples;Min_cycle;Max_cycle;Signal;HPM_P1;HPM_P2
2021/03/29 00:01:08;;;;;;;9.63;4.83;;;10.40;99.90;;;;;;5073062;28;20207;-79
2021/03/29 00:03:35;;;;;;;8.48;4.78;;;10.40;99.90;;;;;;5072852;28;20199;-78
2021/03/29 00:06:02;;;;;;;14.27;5.00;;;10.40;99.90;;;;;;5073007;28;20290;-79
2021/03/29 00:08:31;;;;;;;11.27;5.00;;;10.40;99.90;;;;;;5072712;28;20205;-79
2021/03/29 00:10:58;;;;;;;14.63;6.07;;;10.40;99.90;;;;;;5072916;28;20256;-79
2021/03/29 00:13:29;;;;;;;12.13;5.40;;;10.50;99.90;;;;;;5072965;28;20195;-79
2021/03/29 00:15:57;;;;;;;15.27;5.73;;;10.50;99.90;;;;;;5072367;28;20639;-79
2021/03/29 00:18:23;;;;;;;11.82;4.78;;;10.50;99.90;;;;;;5072869;28;20209;-79
2021/03/29 00:20:53;;;;;;;15.98;6.05;;;10.40;99.90;;;;;;5068633;28;20264;-79
2021/03/29 00:23:21;;;;;;;12.95;5.32;;;10.40;99.90;;;;;;5060980;28;20199;-79
2021/03/29 00:25:48;;;;;;;13.50;5.10;;;10.50;99.90;;;;;;5072604;28;20209;-80
2021/03/29 00:28:15;;;;;;;9.68;5.40;;;10.50;99.90;;;;;;5072316;28;20293;-79
2021/03/29 00:30:45;;;;;;;13.63;5.78;;;10.50;99.90;;;;;;5072221;28;20650;-78
2021/03/29 00:33:12;;;;;;;14.93;5.80;;;10.50;99.90;;;;;;5068511;28;20197;-79
2021/03/29 00:35:42;;;;;;;11.50;5.05;;;10.50;99.90;;;;;;5071846;28;20226;-80
2021/03/29 00:38:11;;;;;;;11.70;5.63;;;10.50;99.90;;;;;;5070145;28;20501;-79
2021/03/29 00:40:38;;;;;;;13.05;5.80;;;10.50;99.90;;;;;;5072145;28;20290;-79
2021/03/29 00:43:11;;;;;;;9.88;5.72;;;10.40;99.90;;;;;;5071982;28;20251;-80
2021/03/29 00:45:39;;;;;;;13.85;5.97;;;10.40;99.90;;;;;;5072458;28;20195;-80
2021/03/29 00:48:08;;;;;;;11.32;5.03;;;10.50;99.90;;;;;;5072284;28;20294;-80
2021/03/29 00:50:42;;;;;;;11.68;4.90;;;10.60;99.90;;;;;;5071734;28;20210;-79
2021/03/29 00:53:10;;;;;;;12.20;5.53;;;10.50;99.90;;;;;;5072591;28;20198;-79
2021/03/29 00:55:38;;;;;;;9.93;4.83;;;10.50;99.90;;;;;;5072012;28;20215;-80
2021/03/29 00:58:05;;;;;;;13.00;5.73;;;10.40;99.90;;;;;;5072272;28;20209;-79
2021/03/29 01:00:35;;;;;;;8.50;4.43;;;10.40;99.90;;;;;;5072200;28;20199;-79
2021/03/29 01:03:03;;;;;;;8.32;4.47;;;10.50;99.90;;;;;;5072561;28;20198;-81
2021/03/29 01:05:30;;;;;;;8.63;4.60;;;10.40;99.90;;;;;;5072024;28;20207;-80
2021/03/29 01:07:58;;;;;;;11.00;4.87;;;10.40;99.90;;;;;;5072368;28;20217;-80
2021/03/29 01:10:24;;;;;;;12.03;4.57;;;10.40;99.90;;;;;;5072254;28;20290;-81
2021/03/29 01:12:52;;;;;;;10.50;4.50;;;10.40;99.90;;;;;;5075701;28;20202;-80
2021/03/29 01:15:22;;;;;;;11.95;4.88;;;10.40;99.90;;;;;;5075899;28;20223;-81
2021/03/29 01:17:50;;;;;;;11.82;4.45;;;10.40;99.90;;;;;;5075130;28;20202;-81
2021/03/29 01:20:29;;;;;;;10.52;4.88;;;10.40;99.90;;;;;;5075716;28;20198;-81
2021/03/29 01:22:58;;;;;;;12.60;5.38;;;10.40;99.90;;;;;;5075634;28;20198;-81
2021/03/29 01:25:31;;;;;;;11.75;5.28;;;10.40;99.90;;;;;;5075642;28;20348;-81
2021/03/29 01:28:02;;;;;;;10.13;4.20;;;10.50;99.90;;;;;;5075564;28;20195;-82
2021/03/29 01:30:30;;;;;;;10.90;4.88;;;10.50;99.90;;;;;;5075873;28;20285;-82
2021/03/29 01:32:58;;;;;;;10.37;4.90;;;10.60;99.90;;;;;;5075182;28;20559;-81
2021/03/29 01:35:30;;;;;;;12.05;4.95;;;10.50;99.90;;;;;;5075626;28;20229;-82
2021/03/29 01:37:57;;;;;;;9.70;4.50;;;10.50;99.90;;;;;;5075543;28;20199;-81
2021/03/29 01:40:24;;;;;;;9.07;4.82;;;10.40;99.90;;;;;;5075701;28;20232;-83
2021/03/29 01:42:52;;;;;;;12.10;4.88;;;10.50;99.90;;;;;;5087809;28;20616;-81
2021/03/29 01:45:20;;;;;;;9.27;4.80;;;10.50;99.90;;;;;;5083971;28;20290;-81
2021/03/29 01:47:47;;;;;;;14.40;4.90;;;10.30;99.90;;;;;;5089183;28;20263;-82
2021/03/29 01:50:17;;;;;;;10.83;4.70;;;10.30;99.90;;;;;;5082898;28;20547;-81
2021/03/29 01:52:44;;;;;;;9.43;4.93;;;10.20;99.90;;;;;;5077159;28;20285;-82
2021/03/29 01:55:12;;;;;;;11.73;4.50;;;10.20;99.90;;;;;;5074783;28;20219;-82
2021/03/29 01:57:38;;;;;;;11.88;4.68;;;10.10;99.90;;;;;;5074866;28;20199;-81
2021/03/29 02:00:09;;;;;;;11.60;5.07;;;10.10;99.90;;;;;;5074797;28;20220;-81
2021/03/29 02:02:36;;;;;;;10.50;4.47;;;10.00;99.90;;;;;;5075147;28;20195;-81
2021/03/29 02:05:08;;;;;;;9.40;4.60;;;10.00;99.90;;;;;;5074991;28;20213;-82
2021/03/29 02:07:34;;;;;;;7.43;4.10;;;10.10;99.90;;;;;;5074812;28;20661;-81
2021/03/29 02:10:01;;;;;;;10.10;4.00;;;10.00;99.90;;;;;;5074773;28;20622;-80
2021/03/29 02:12:28;;;;;;;12.73;4.68;;;10.00;99.90;;;;;;5074963;28;20202;-79
2021/03/29 02:14:56;;;;;;;9.07;4.50;;;9.90;99.90;;;;;;5074666;28;20227;-79
2021/03/29 02:17:22;;;;;;;10.80;3.67;;;9.90;99.90;;;;;;5069816;28;20191;-79
2021/03/29 02:19:50;;;;;;;10.03;4.30;;;9.90;99.90;;;;;;5065707;28;20222;-79
2021/03/29 02:22:17;;;;;;;9.37;4.37;;;9.80;99.90;;;;;;5074232;28;20248;-79
2021/03/29 02:24:44;;;;;;;10.13;3.80;;;9.80;99.90;;;;;;5074326;28;20658;-79
2021/03/29 02:27:11;;;;;;;8.40;4.00;;;9.70;99.90;;;;;;5072843;28;20203;-79
2021/03/29 02:29:38;;;;;;;8.73;3.93;;;9.70;99.90;;;;;;5061815;28;20207;-79
2021/03/29 02:32:05;;;;;;;6.37;3.93;;;9.80;99.90;;;;;;5074291;28;20203;-79
2021/03/29 02:34:32;;;;;;;7.57;3.83;;;9.90;99.90;;;;;;5074148;28;20223;-79
2021/03/29 02:37:01;;;;;;;11.67;4.27;;;9.90;99.90;;;;;;5074352;28;20206;-79
2021/03/29 02:39:27;;;;;;;11.57;4.17;;;9.90;99.90;;;;;;5073195;28;20195;-80
2021/03/29 02:41:54;;;;;;;10.57;3.90;;;9.80;99.90;;;;;;5061073;28;20209;-81
2021/03/29 02:44:21;;;;;;;9.00;3.50;;;9.80;99.90;;;;;;5073972;28;20231;-81
2021/03/29 02:46:49;;;;;;;11.70;3.80;;;9.70;99.90;;;;;;5073684;28;20198;-80
2021/03/29 02:49:18;;;;;;;10.87;4.13;;;9.90;99.90;;;;;;5074262;28;20251;-81
2021/03/29 02:51:45;;;;;;;8.97;4.03;;;9.70;99.90;;;;;;5073820;28;20264;-80
2021/03/29 02:54:14;;;;;;;11.37;3.73;;;9.70;99.90;;;;;;5064091;28;20206;-80
2021/03/29 02:56:43;;;;;;;12.10;3.97;;;9.80;99.90;;;;;;5070342;28;20207;-82
2021/03/29 02:59:14;;;;;;;8.50;3.90;;;9.60;99.90;;;;;;5073829;28;20741;-81
2021/03/29 03:01:42;;;;;;;5.83;3.30;;;9.70;99.90;;;;;;5073763;28;20233;-80
2021/03/29 03:04:10;;;;;;;10.33;3.90;;;9.70;99.90;;;;;;5066113;28;20199;-80
2021/03/29 03:06:39;;;;;;;9.23;4.10;;;9.70;99.90;;;;;;5068034;28;20202;-80
2021/03/29 03:09:07;;;;;;;9.90;3.80;;;9.80;99.90;;;;;;5073346;28;20568;-80
2021/03/29 03:11:35;;;;;;;10.10;4.30;;;9.60;99.90;;;;;;5073473;28;20206;-80
2021/03/29 03:14:04;;;;;;;8.10;3.47;;;9.70;99.90;;;;;;5073147;28;20205;-79
2021/03/29 03:16:32;;;;;;;8.40;3.57;;;9.60;99.90;;;;;;5073532;28;20226;-79
2021/03/29 03:18:58;;;;;;;10.20;3.73;;;9.60;99.90;;;;;;5073312;28;20199;-80
2021/03/29 03:21:24;;;;;;;10.90;4.17;;;9.50;99.90;;;;;;5073732;28;20198;-79
2021/03/29 03:23:53;;;;;;;9.33;3.53;;;9.60;99.90;;;;;;5059347;28;20256;-79
2021/03/29 03:26:20;;;;;;;11.27;3.70;;;9.60;99.90;;;;;;5073301;28;20203;-79
2021/03/29 03:28:49;;;;;;;11.50;4.30;;;9.60;99.90;;;;;;5072813;28;20202;-79
2021/03/29 03:31:16;;;;;;;11.30;4.37;;;9.60;99.90;;;;;;5073206;28;20286;-79
2021/03/29 03:33:43;;;;;;;7.57;3.37;;;9.50;99.90;;;;;;5072734;28;20210;-80
2021/03/29 03:36:10;;;;;;;9.77;3.73;;;9.50;99.90;;;;;;5073046;28;20215;-81
2021/03/29 03:38:41;;;;;;;9.27;4.10;;;9.50;99.90;;;;;;5072842;28;20195;-81
2021/03/29 03:41:09;;;;;;;10.17;4.03;;;9.50;99.90;;;;;;5072813;28;20206;-81
2021/03/29 03:43:37;;;;;;;9.10;4.37;;;9.50;99.90;;;;;;5072872;28;20195;-81
2021/03/29 03:46:09;;;;;;;9.23;3.60;;;9.50;99.90;;;;;;5072854;28;20225;-79
2021/03/29 03:48:38;;;;;;;11.37;4.73;;;9.50;99.90;;;;;;5072728;28;20668;-80
2021/03/29 03:51:05;;;;;;;6.87;3.27;;;9.50;99.90;;;;;;5073119;28;20633;-80
2021/03/29 03:53:33;;;;;;;8.53;3.97;;;9.50;99.90;;;;;;5072770;28;20295;-79
2021/03/29 03:56:01;;;;;;;12.03;4.40;;;9.40;99.90;;;;;;5072987;28;20246;-80
2021/03/29 03:58:29;;;;;;;10.53;3.93;;;9.40;99.90;;;;;;5058764;28;20285;-80
2021/03/29 04:00:56;;;;;;;9.97;4.63;;;9.40;99.90;;;;;;5073013;28;20199;-80
2021/03/29 04:03:23;;;;;;;10.57;3.80;;;9.40;99.90;;;;;;5072796;28;20195;-80
2021/03/29 04:05:50;;;;;;;8.87;3.80;;;9.40;99.90;;;;;;5072923;28;20198;-80
2021/03/29 04:08:16;;;;;;;10.47;3.83;;;9.40;99.90;;;;;;5072612;28;20629;-80
2021/03/29 04:10:46;;;;;;;9.33;3.87;;;9.30;99.90;;;;;;5073250;28;20230;-79
2021/03/29 04:13:14;;;;;;;7.43;3.13;;;9.30;99.90;;;;;;5072575;28;20642;-78
2021/03/29 04:15:40;;;;;;;11.33;3.63;;;9.30;99.90;;;;;;5072643;28;20214;-78
2021/03/29 04:18:07;;;;;;;14.53;4.40;;;9.30;99.90;;;;;;5072883;28;20245;-79
2021/03/29 04:20:35;;;;;;;12.50;3.80;;;9.20;99.90;;;;;;5072145;28;20229;-78
2021/03/29 04:23:02;;;;;;;11.47;3.97;;;9.20;99.90;;;;;;5072774;28;20206;-78
2021/03/29 04:25:28;;;;;;;7.23;3.80;;;9.20;99.90;;;;;;5072605;28;20217;-79
2021/03/29 04:27:55;;;;;;;7.50;3.13;;;9.20;99.90;;;;;;5072806;28;20202;-77
2021/03/29 04:30:22;;;;;;;12.17;3.93;;;9.20;99.90;;;;;;5072829;28;20298;-79
2021/03/29 04:32:49;;;;;;;14.17;4.07;;;9.20;99.90;;;;;;5072290;28;20321;-80
2021/03/29 04:35:17;;;;;;;10.33;4.63;;;9.20;99.90;;;;;;5064431;28;20284;-79
2021/03/29 04:37:44;;;;;;;8.03;3.13;;;9.40;99.90;;;;;;5066962;28;20203;-79
2021/03/29 04:40:11;;;;;;;10.57;3.80;;;9.20;99.90;;;;;;5072698;28;20199;-81
2021/03/29 04:42:38;;;;;;;6.60;3.70;;;9.30;99.90;;;;;;5072555;28;20198;-79
2021/03/29 04:45:07;;;;;;;10.47;4.00;;;9.30;99.90;;;;;;5073460;28;20236;-79
2021/03/29 04:47:33;;;;;;;10.50;3.80;;;9.20;99.90;;;;;;5064895;28;20543;-81
2021/03/29 04:49:59;;;;;;;6.40;3.67;;;9.40;99.90;;;;;;5073262;28;20203;-80
2021/03/29 04:52:26;;;;;;;11.50;3.70;;;9.40;99.90;;;;;;5076386;28;20206;-79
2021/03/29 04:54:53;;;;;;;10.13;3.80;;;9.40;99.90;;;;;;5076084;28;20585;-81
2021/03/29 04:57:19;;;;;;;10.87;3.87;;;9.30;99.90;;;;;;5076283;28;20191;-80
2021/03/29 04:59:46;;;;;;;14.80;4.37;;;9.20;99.90;;;;;;5076286;28;20199;-80
2021/03/29 05:02:12;;;;;;;8.90;3.90;;;9.30;99.90;;;;;;5076415;28;20213;-81
2021/03/29 05:04:38;;;;;;;15.03;5.03;;;9.20;99.90;;;;;;5076201;28;20198;-80
2021/03/29 05:07:08;;;;;;;10.27;4.50;;;9.20;99.90;;;;;;5075801;28;20198;-80
2021/03/29 05:09:34;;;;;;;7.30;3.37;;;9.20;99.90;;;;;;5076078;28;20576;-80
2021/03/29 05:12:08;;;;;;;9.07;3.67;;;9.20;99.90;;;;;;5076116;28;20261;-80
2021/03/29 05:14:35;;;;;;;10.07;4.27;;;9.10;99.90;;;;;;5076029;28;20256;-81
2021/03/29 05:17:02;;;;;;;12.90;4.20;;;9.10;99.90;;;;;;5075151;28;20658;-81
2021/03/29 05:19:29;;;;;;;11.73;4.13;;;9.00;99.90;;;;;;5075790;28;20213;-81
2021/03/29 05:21:55;;;;;;;7.00;3.47;;;9.00;99.90;;;;;;5075678;28;20205;-80
2021/03/29 05:24:22;;;;;;;12.83;4.07;;;9.00;99.90;;;;;;5076021;28;20191;-81
2021/03/29 05:26:48;;;;;;;10.57;4.00;;;8.90;99.90;;;;;;5075850;28;20243;-81
2021/03/29 05:29:16;;;;;;;9.30;4.10;;;9.00;99.90;;;;;;5075502;28;20285;-82
2021/03/29 05:31:42;;;;;;;7.00;3.97;;;9.00;99.90;;;;;;5075406;28;20207;-81
2021/03/29 05:34:10;;;;;;;10.47;4.70;;;9.00;99.90;;;;;;5075283;28;20199;-81
2021/03/29 05:36:37;;;;;;;11.63;4.60;;;9.00;99.90;;;;;;5075039;28;20223;-81
2021/03/29 05:39:04;;;;;;;6.93;3.80;;;9.00;99.90;;;;;;5075201;28;20298;-81
2021/03/29 05:41:31;;;;;;;6.77;3.67;;;9.00;99.90;;;;;;5075300;28;20206;-81
2021/03/29 05:43:57;;;;;;;12.30;3.90;;;9.00;99.90;;;;;;5075023;28;20643;-80
2021/03/29 05:46:26;;;;;;;9.17;3.90;;;9.10;99.90;;;;;;5075233;28;20195;-80
2021/03/29 05:48:53;;;;;;;6.70;3.90;;;9.10;99.90;;;;;;5075454;28;20198;-81
2021/03/29 05:51:20;;;;;;;9.63;4.80;;;9.10;99.90;;;;;;5075137;28;20286;-81
2021/03/29 05:53:46;;;;;;;10.87;3.97;;;9.30;99.90;;;;;;5075112;28;20202;-80
2021/03/29 05:56:14;;;;;;;11.73;4.30;;;9.30;99.90;;;;;;5074320;28;20658;-81
2021/03/29 05:58:42;;;;;;;7.20;3.60;;;9.30;99.90;;;;;;5074715;28;20256;-82
2021/03/29 06:01:09;;;;;;;10.87;4.07;;;9.40;99.90;;;;;;5074793;28;20712;-81
2021/03/29 06:03:37;;;;;;;11.07;4.07;;;9.40;99.90;;;;;;5075225;28;20197;-81
2021/03/29 06:06:18;;;;;;;9.20;3.87;;;9.50;99.90;;;;;;5075091;28;20207;-81
2021/03/29 06:08:46;;;;;;;10.90;4.13;;;9.50;99.90;;;;;;5074610;28;20199;-83
2021/03/29 06:11:27;;;;;;;8.53;3.73;;;9.50;99.90;;;;;;5074793;28;20646;-83
2021/03/29 06:14:14;;;;;;;9.80;4.30;;;9.60;99.90;;;;;;5074298;28;20285;-83
2021/03/29 06:16:55;;;;;;;10.20;4.07;;;9.70;99.90;;;;;;5074723;28;20226;-83
2021/03/29 06:19:45;;;;;;;9.20;3.37;;;9.70;99.90;;;;;;5061572;28;20199;-81
2021/03/29 06:22:19;;;;;;;11.43;4.30;;;9.90;99.90;;;;;;5060609;28;20302;-82
2021/03/29 06:25:05;;;;;;;10.20;3.77;;;9.80;99.90;;;;;;5074709;28;20202;-81
2021/03/29 06:27:33;;;;;;;8.33;3.73;;;9.90;99.90;;;;;;5074344;28;20289;-81
2021/03/29 06:30:20;;;;;;;7.50;3.60;;;10.20;99.90;;;;;;5074660;28;20201;-81
2021/03/29 06:33:08;;;;;;;6.10;3.72;;;10.50;99.90;;;;;;5074137;28;20221;-80
2021/03/29 06:35:39;;;;;;;6.20;3.83;;;10.80;99.90;;;;;;5071138;28;20230;-81
2021/03/29 06:38:08;;;;;;;10.80;3.53;;;11.00;99.90;;;;;;5074345;28;20195;-81
2021/03/29 06:40:35;;;;;;;10.85;4.15;;;11.30;99.90;;;;;;5074352;28;20199;-82
2021/03/29 06:43:19;;;;;;;13.45;3.55;;;11.40;99.90;;;;;;5074016;28;20194;-82
2021/03/29 06:45:46;;;;;;;8.25;3.78;;;11.60;99.90;;;;;;5074347;28;20221;-81
2021/03/29 06:48:17;;;;;;;7.45;3.33;;;11.80;99.90;;;;;;5073742;28;20203;-81
2021/03/29 06:50:45;;;;;;;12.18;3.72;;;12.20;99.90;;;;;;5074143;28;20217;-80
2021/03/29 06:53:24;;;;;;;10.98;4.30;;;12.10;99.90;;;;;;5073607;28;20202;-81
2021/03/29 06:55:51;;;;;;;11.90;3.75;;;12.30;99.90;;;;;;5064540;28;20217;-81
2021/03/29 06:58:25;;;;;;;8.40;3.70;;;12.20;99.90;;;;;;5069061;28;20294;-82
2021/03/29 07:00:55;;;;;;;11.93;3.97;;;12.20;99.90;;;;;;5064895;28;20651;-80
2021/03/29 07:03:22;;;;;;;10.63;3.80;;;12.20;99.90;;;;;;5054917;28;20196;-79
2021/03/29 07:05:49;;;;;;;9.25;3.45;;;12.40;99.90;;;;;;5054382;28;20204;-79
2021/03/29 07:08:17;;;;;;;10.27;3.80;;;12.40;99.90;;;;;;5053588;28;20200;-78
2021/03/29 07:10:43;;;;;;;10.18;3.47;;;12.30;99.90;;;;;;5054238;28;20206;-79
2021/03/29 07:13:11;;;;;;;10.48;4.40;;;12.60;99.90;;;;;;5054494;28;20286;-80
2021/03/29 07:15:38;;;;;;;9.35;4.13;;;13.20;99.90;;;;;;5054624;28;20226;-81
2021/03/29 07:18:05;;;;;;;9.57;4.10;;;14.10;99.90;;;;;;5053997;28;20647;-83
2021/03/29 07:20:33;;;;;;;7.38;3.40;;;14.70;99.90;;;;;;5054548;28;20646;-79
2021/03/29 07:23:00;;;;;;;13.68;3.78;;;15.30;99.90;;;;;;5053698;28;20286;-79
2021/03/29 07:25:31;;;;;;;9.32;3.92;;;15.80;99.90;;;;;;5054561;28;20203;-84
2021/03/29 07:28:00;;;;;;;11.93;4.28;;;16.40;99.90;;;;;;5054410;28;20207;-83
2021/03/29 07:30:46;;;;;;;8.88;3.35;;;16.60;99.90;;;;;;5054299;28;20234;-83
2021/03/29 07:33:13;;;;;;;6.35;3.67;;;16.80;99.90;;;;;;5072260;28;20203;-83
2021/03/29 07:35:49;;;;;;;7.80;3.47;;;17.00;99.90;;;;;;5072976;28;20313;-79
2021/03/29 07:38:17;;;;;;;10.63;4.20;;;17.20;99.90;;;;;;5070913;28;20662;-81
2021/03/29 07:40:48;;;;;;;8.15;3.97;;;17.20;99.90;;;;;;5064821;28;20284;-80
2021/03/29 07:43:17;;;;;;;9.85;3.28;;;17.00;99.90;;;;;;5066611;28;20704;-81
2021/03/29 07:45:50;;;;;;;9.18;4.40;;;16.90;99.90;;;;;;5064538;28;20199;-81
2021/03/29 07:48:37;;;;;;;12.55;3.90;;;17.10;99.90;;;;;;5064964;28;20672;-80
2021/03/29 07:51:05;;;;;;;8.40;3.63;;;17.60;99.90;;;;;;5064695;28;20203;-80
2021/03/29 07:53:48;;;;;;;11.30;3.78;;;17.60;99.90;;;;;;5069797;28;20738;-85
2021/03/29 07:56:40;;;;;;;9.77;3.72;;;18.00;99.90;;;;;;5065642;28;20322;-81
2021/03/29 07:59:06;;;;;;;8.43;4.03;;;18.10;99.90;;;;;;5060166;28;20198;-78
2021/03/29 08:02:05;;;;;;;6.82;3.53;;;18.60;99.90;;;;;;5064321;28;20205;-79
2021/03/29 08:05:00;;;;;;;10.00;3.88;;;18.70;99.90;;;;;;5067219;28;20260;-78
2021/03/29 08:07:36;;;;;;;6.63;3.25;;;18.40;99.90;;;;;;5052881;28;20556;-78
2021/03/29 08:10:04;;;;;;;10.80;4.00;;;18.60;99.90;;;;;;5062840;28;20196;-79
2021/03/29 08:12:32;;;;;;;10.55;3.50;;;19.10;99.90;;;;;;5068684;28;20194;-81
2021/03/29 08:14:59;;;;;;;8.68;4.10;;;19.50;99.90;;;;;;5065038;28;20199;-79
2021/03/29 08:17:44;;;;;;;10.18;3.65;;;19.60;99.90;;;;;;5067790;28;20211;-79
2021/03/29 08:20:24;;;;;;;8.00;3.83;;;19.40;99.90;;;;;;5069949;28;20203;-79
2021/03/29 08:23:27;;;;;;;9.93;3.90;;;19.20;99.90;;;;;;5065044;28;20194;-79
2021/03/29 08:26:16;;;;;;;8.77;3.97;;;19.60;99.90;;;;;;5071694;28;20206;-79
2021/03/29 08:29:31;;;;;;;5.28;3.40;;;19.80;99.90;;;;;;5068401;28;20229;-81
2021/03/29 08:32:13;;;;;;;7.93;3.30;;;19.80;99.90;;;;;;5072518;28;20206;-79
2021/03/29 08:35:02;;;;;;;10.35;4.30;;;20.40;99.90;;;;;;5072942;28;20196;-79
2021/03/29 08:37:31;;;;;;;7.15;3.78;;;20.60;99.90;;;;;;5063442;28;20195;-78
2021/03/29 08:39:59;;;;;;;10.02;4.35;;;20.70;99.90;;;;;;5076123;28;20547;-79
2021/03/29 08:42:29;;;;;;;5.85;3.65;;;21.00;99.90;;;;;;5076930;28;20203;-78
2021/03/29 08:44:56;;;;;;;10.60;3.65;;;21.10;99.90;;;;;;5076884;28;20238;-79
2021/03/29 08:47:24;;;;;;;8.15;3.92;;;20.80;99.90;;;;;;5076248;28;20209;-78
2021/03/29 08:49:53;;;;;;;8.32;3.63;;;20.90;99.60;;;;;;5076441;28;20195;-78
2021/03/29 08:52:20;;;;;;;5.47;3.80;;;21.00;99.80;;;;;;5076034;28;20203;-81
2021/03/29 08:54:51;;;;;;;8.95;3.70;;;21.10;97.90;;;;;;5075945;28;20290;-78
2021/03/29 08:57:21;;;;;;;8.43;4.38;;;20.80;98.60;;;;;;5076314;28;20195;-78
2021/03/29 08:59:53;;;;;;;8.02;4.10;;;20.80;98.20;;;;;;5076371;28;20203;-79
2021/03/29 09:02:19;;;;;;;11.85;4.30;;;20.80;97.90;;;;;;5062882;28;20329;-78
2021/03/29 09:04:57;;;;;;;9.77;4.03;;;21.00;98.00;;;;;;5075865;28;20209;-78
2021/03/29 09:07:32;;;;;;;7.88;3.72;;;21.50;98.20;;;;;;5062815;28;20198;-78
2021/03/29 09:10:00;;;;;;;8.40;3.70;;;21.90;96.60;;;;;;5075701;28;20681;-78
2021/03/29 09:12:29;;;;;;;6.97;3.83;;;21.50;96.90;;;;;;5076024;28;20194;-78
2021/03/29 09:14:56;;;;;;;6.70;3.35;;;21.60;96.00;;;;;;5075722;28;20230;-78
2021/03/29 09:17:30;;;;;;;7.40;3.55;;;21.40;95.20;;;;;;5075356;28;20556;-79
2021/03/29 09:19:57;;;;;;;7.97;3.50;;;21.30;97.10;;;;;;5075819;28;20198;-78
2021/03/29 09:22:31;;;;;;;6.13;3.65;;;21.40;94.60;;;;;;5075687;28;20265;-78
2021/03/29 09:24:58;;;;;;;6.40;3.17;;;21.60;94.80;;;;;;5075974;28;20191;-77
2021/03/29 09:27:31;;;;;;;6.35;3.35;;;21.90;94.80;;;;;;5075844;28;20293;-78
2021/03/29 09:29:59;;;;;;;9.60;3.70;;;22.40;94.00;;;;;;5075837;28;20195;-78
2021/03/29 09:32:26;;;;;;;6.95;3.30;;;21.60;92.80;;;;;;5061640;28;20602;-79
2021/03/29 09:34:53;;;;;;;9.68;3.40;;;21.20;92.80;;;;;;5060372;28;20203;-80
2021/03/29 09:37:21;;;;;;;7.50;3.33;;;20.40;93.50;;;;;;5084302;28;20264;-77
2021/03/29 09:39:48;;;;;;;6.20;3.00;;;19.70;95.00;;;;;;5088163;28;20221;-78
2021/03/29 09:42:16;;;;;;;9.73;3.40;;;19.20;96.00;;;;;;5089095;28;20266;-79
2021/03/29 09:44:42;;;;;;;7.68;3.20;;;19.00;97.00;;;;;;5086546;28;20270;-77
2021/03/29 09:47:10;;;;;;;5.35;3.10;;;18.80;96.40;;;;;;5069364;28;20257;-78
2021/03/29 09:49:48;;;;;;;6.20;3.28;;;18.70;96.60;;;;;;5069513;28;20201;-78
2021/03/29 09:52:15;;;;;;;7.00;3.50;;;18.70;97.70;;;;;;5075600;28;20212;-77
2021/03/29 09:54:47;;;;;;;5.70;3.13;;;18.60;96.90;;;;;;5074737;28;20215;-81
2021/03/29 09:57:16;;;;;;;5.25;2.80;;;18.60;98.20;;;;;;5075302;28;20211;-78
2021/03/29 09:59:44;;;;;;;7.07;3.50;;;18.60;97.60;;;;;;5075321;28;20235;-78
2021/03/29 10:02:14;;;;;;;4.82;3.33;;;18.40;96.90;;;;;;5074789;28;20199;-78
2021/03/29 10:04:41;;;;;;;7.60;3.35;;;18.30;98.80;;;;;;5075188;28;20195;-78
2021/03/29 10:07:14;;;;;;;7.00;3.58;;;18.30;97.90;;;;;;5075065;28;20202;-78
2021/03/29 10:09:40;;;;;;;7.00;3.22;;;18.30;97.70;;;;;;5075130;28;20255;-78
2021/03/29 10:12:08;;;;;;;5.22;2.95;;;18.20;98.30;;;;;;5074532;28;20195;-77
2021/03/29 10:14:36;;;;;;;6.93;3.85;;;18.20;98.10;;;;;;5074978;28;20191;-78
2021/03/29 10:17:15;;;;;;;7.20;3.35;;;18.10;97.50;;;;;;5074472;28;20229;-78
2021/03/29 10:19:43;;;;;;;5.00;2.90;;;18.10;97.60;;;;;;5074833;28;20195;-78
2021/03/29 10:22:14;;;;;;;4.47;2.90;;;18.20;97.80;;;;;;5074403;28;20199;-79
2021/03/29 10:25:00;;;;;;;7.20;3.45;;;18.30;98.20;;;;;;5065950;28;20195;-78
2021/03/29 10:27:38;;;;;;;8.57;3.72;;;18.30;96.50;;;;;;5072092;28;20249;-78
2021/03/29 10:30:06;;;;;;;5.97;3.20;;;18.40;98.10;;;;;;5074547;28;20277;-80
2021/03/29 10:32:32;;;;;;;8.70;3.22;;;18.50;97.10;;;;;;5074462;28;20230;-79
2021/03/29 10:35:00;;;;;;;7.13;3.45;;;18.60;98.10;;;;;;5073858;28;20602;-79
2021/03/29 10:37:30;;;;;;;7.95;3.15;;;18.60;97.70;;;;;;5074037;28;20301;-78
2021/03/29 10:40:00;;;;;;;6.40;3.40;;;18.60;97.90;;;;;;5074295;28;20274;-78
2021/03/29 10:42:28;;;;;;;7.38;3.45;;;18.60;98.40;;;;;;5073833;28;20752;-79
2021/03/29 10:44:55;;;;;;;6.35;3.00;;;18.50;98.90;;;;;;5074046;28;20203;-80
2021/03/29 10:47:23;;;;;;;5.68;3.00;;;18.50;96.40;;;;;;5074181;28;20203;-79
2021/03/29 10:49:50;;;;;;;7.30;3.55;;;18.50;97.10;;;;;;5073989;28;20199;-79
2021/03/29 10:52:17;;;;;;;8.80;3.50;;;18.50;96.90;;;;;;5074137;28;20206;-80
2021/03/29 10:54:44;;;;;;;6.22;3.22;;;18.40;96.80;;;;;;5073654;28;20276;-81
2021/03/29 10:57:11;;;;;;;6.80;3.17;;;18.30;96.90;;;;;;5073937;28;20218;-79
2021/03/29 10:59:38;;;;;;;8.95;3.55;;;18.40;97.30;;;;;;5074076;28;20206;-80
2021/03/29 11:02:04;;;;;;;8.90;3.67;;;18.50;97.30;;;;;;5073739;28;20224;-79
2021/03/29 11:04:31;;;;;;;7.32;3.58;;;18.50;97.50;;;;;;5073865;28;20199;-79
2021/03/29 11:06:58;;;;;;;7.63;3.45;;;18.60;97.10;;;;;;5073672;28;20335;-79
2021/03/29 11:09:25;;;;;;;5.57;3.10;;;18.70;97.70;;;;;;5073559;28;20195;-79
2021/03/29 11:11:53;;;;;;;8.15;3.08;;;18.90;98.00;;;;;;5073294;28;20294;-79
2021/03/29 11:14:20;;;;;;;6.72;3.10;;;18.90;97.40;;;;;;5073459;28;20195;-78
2021/03/29 11:16:47;;;;;;;8.13;3.38;;;19.00;97.00;;;;;;5073566;28;20238;-79
2021/03/29 11:19:14;;;;;;;5.57;3.70;;;18.90;96.60;;;;;;5059338;28;20222;-79
2021/03/29 11:21:40;;;;;;;8.45;3.50;;;18.90;95.60;;;;;;5073075;28;20218;-79
2021/03/29 11:24:07;;;;;;;5.78;3.13;;;18.70;97.20;;;;;;5073232;28;20206;-79
2021/03/29 11:26:34;;;;;;;12.63;3.90;;;18.70;96.30;;;;;;5073164;28;20207;-79
2021/03/29 11:29:01;;;;;;;8.45;3.53;;;18.80;96.10;;;;;;5073132;28;20307;-79
2021/03/29 11:31:27;;;;;;;6.28;3.00;;;18.70;95.60;;;;;;5073118;28;20195;-79
2021/03/29 11:33:53;;;;;;;8.45;3.60;;;18.80;97.20;;;;;;5073232;28;20198;-79
2021/03/29 11:36:20;;;;;;;6.13;3.35;;;18.90;95.60;;;;;;5072444;28;20700;-79
2021/03/29 11:38:47;;;;;;;6.53;3.80;;;18.90;96.90;;;;;;5073210;28;20289;-79
2021/03/29 11:41:14;;;;;;;6.95;3.78;;;18.90;97.60;;;;;;5072994;28;20245;-78
2021/03/29 11:43:42;;;;;;;9.15;3.90;;;19.00;97.50;;;;;;5072836;28;20565;-79
2021/03/29 11:46:08;;;;;;;5.35;3.60;;;19.00;97.20;;;;;;5073172;28;20208;-78
2021/03/29 11:48:34;;;;;;;8.43;3.17;;;19.00;96.50;;;;;;5072906;28;20195;-78
2021/03/29 11:51:01;;;;;;;5.43;3.22;;;19.00;95.90;;;;;;5072862;28;20646;-78
2021/03/29 11:53:27;;;;;;;8.68;3.53;;;19.10;95.70;;;;;;5072859;28;20259;-79
2021/03/29 11:55:53;;;;;;;5.47;3.28;;;19.20;95.70;;;;;;5072511;28;20225;-78
2021/03/29 11:58:20;;;;;;;9.30;3.75;;;19.20;95.60;;;;;;5072774;28;20201;-79
2021/03/29 12:00:51;;;;;;;6.82;3.90;;;19.30;96.00;;;;;;5073122;28;20207;-79
2021/03/29 12:03:23;;;;;;;7.53;3.70;;;19.10;96.10;;;;;;5072642;28;20206;-79
2021/03/29 12:05:54;;;;;;;6.55;3.70;;;19.20;96.40;;;;;;5073023;28;20206;-78
2021/03/29 12:08:26;;;;;;;6.07;3.22;;;19.40;96.50;;;;;;5072858;28;20210;-79
2021/03/29 12:13:38;;;;;;;9.25;3.53;;;19.40;95.70;;;;;;5072653;28;20676;-78
2021/03/29 12:16:06;;;;;;;7.53;3.88;;;19.30;93.20;;;;;;5072851;28;20315;-79
2021/03/29 12:18:38;;;;;;;6.03;3.30;;;19.40;93.90;;;;;;5072383;28;20202;-79
2021/03/29 12:21:06;;;;;;;10.45;4.13;;;19.50;95.00;;;;;;5073025;28;20591;-79
2021/03/29 12:23:35;;;;;;;6.13;3.55;;;19.60;94.40;;;;;;5072689;28;20203;-79
2021/03/29 12:26:03;;;;;;;8.23;3.92;;;19.60;96.20;;;;;;5058861;28;20256;-79
2021/03/29 12:28:30;;;;;;;6.88;3.88;;;19.80;94.60;;;;;;5072967;28;20199;-80
2021/03/29 12:30:58;;;;;;;8.02;3.97;;;19.70;94.80;;;;;;5071969;28;20590;-79
2021/03/29 12:33:27;;;;;;;10.02;3.80;;;19.70;94.40;;;;;;5072509;28;20577;-79
2021/03/29 12:35:56;;;;;;;7.15;3.83;;;19.60;95.30;;;;;;5072563;28;20309;-80
2021/03/29 12:38:24;;;;;;;10.05;4.32;;;19.70;95.00;;;;;;5072817;28;20199;-81
2021/03/29 12:40:55;;;;;;;9.65;4.25;;;19.60;94.20;;;;;;5072303;28;20194;-79
2021/03/29 12:43:32;;;;;;;8.93;4.85;;;19.60;95.00;;;;;;5072428;28;20556;-78
2021/03/29 12:46:01;;;;;;;7.75;4.50;;;19.50;95.40;;;;;;5072333;28;20198;-77
2021/03/29 12:48:28;;;;;;;10.18;4.05;;;19.50;94.40;;;;;;5072208;28;20203;-79
2021/03/29 12:50:54;;;;;;;5.82;4.18;;;19.50;95.20;;;;;;5072218;28;20264;-78
2021/03/29 12:53:24;;;;;;;6.30;4.20;;;19.60;95.60;;;;;;5071924;28;20674;-78
2021/03/29 12:55:50;;;;;;;10.88;4.40;;;19.60;96.00;;;;;;5063121;28;20246;-78
2021/03/29 12:58:18;;;;;;;8.05;4.03;;;19.60;96.40;;;;;;5067673;28;20992;-79
2021/03/29 13:00:44;;;;;;;9.68;5.13;;;19.80;96.00;;;;;;5072169;28;20345;-78